YM Initiative — A8HX4 — position and weather

sailwx.info

Track history (hours):
 
Tides and Currents Weather Stations Pressure Air Temp Water Temp Dewpoint Dewpoint Depression Visibility Wind Speed Wind Dir Waves Ship Positions

YM Initiative

Last reported at 2014-Jul-23 08:04 UTC. Time now 2014-Jul-26 13:15 UTC.
Position N 01°14' E 104°03'.

Length 173 m; draft 7.7 m.

Type: Cargo ship. MMSI: 635961368.

Date/timePositionNaut miles runAvg speedWind from/ knotsBaromVisibWave heightAir tempDewpointWater temp
2014-Jul-23 08:04N 01°14' E 104°03'916.6
2014-Jul-23 07:33N 01°12' E 103°55'8 8.2
2014-Jul-23 06:33N 01°14' E 103°47'2 1.9
2014-Jul-23 05:22N 01°17' E 103°47'0 0.1
2014-Jul-23 04:28N 01°17' E 103°47'0 0.1
2014-Jul-23 03:31N 01°17' E 103°47'0 0.1
2014-Jul-23 02:28N 01°17' E 103°47'0 0.0
2014-Jul-23 01:31N 01°17' E 103°47'0 0.0
2014-Jul-23 00:31N 01°17' E 103°47'0 0.1
2014-Jul-22 23:31N 01°17' E 103°47'0 0.0
2014-Jul-22 22:28N 01°17' E 103°47'0 0.1
2014-Jul-22 21:31N 01°17' E 103°47'0 0.1
2014-Jul-22 20:31N 01°17' E 103°47'0 0.0
2014-Jul-22 19:28N 01°17' E 103°47'0 0.0
2014-Jul-22 18:31N 01°17' E 103°47'0 0.0
2014-Jul-22 17:28N 01°17' E 103°47'2 1.9
2014-Jul-22 16:33N 01°15' E 103°47'0 0.5
2014-Jul-22 15:33N 01°14' E 103°47'3 3.1
2014-Jul-22 14:31N 01°13' E 103°50'7 7.2
2014-Jul-22 13:33N 01°15' E 103°56'  
2014-Jul-17 12:24N 01°14' E 103°58'18 0.4
2014-Jul-15 17:09N 01°13' E 103°41'711.8
2014-Jul-15 16:33N 01°16' E 103°47'0 0.2
2014-Jul-15 15:33N 01°16' E 103°47'0 0.0
2014-Jul-15 14:33N 01°16' E 103°47'0 0.0
2014-Jul-15 13:33N 01°16' E 103°47'0 0.0
2014-Jul-15 12:33N 01°16' E 103°47'0 0.0
2014-Jul-15 11:33N 01°16' E 103°47'0 0.0
2014-Jul-15 10:33N 01°16' E 103°47'0 0.0
2014-Jul-15 09:33N 01°16' E 103°47'0 0.0
2014-Jul-15 08:33N 01°16' E 103°47'0 0.0
2014-Jul-15 07:33N 01°16' E 103°47'0 0.0
2014-Jul-15 06:33N 01°16' E 103°47'0 0.0
2014-Jul-15 05:33N 01°16' E 103°47'0 0.0
2014-Jul-15 04:33N 01°16' E 103°47'0 0.0
2014-Jul-15 03:33N 01°16' E 103°47'3 3.2
2014-Jul-15 02:33N 01°13' E 103°48'6 6.5
2014-Jul-15 01:33N 01°16' E 103°54'0 0.4
2014-Jul-15 00:31N 01°16' E 103°53'0 0.0
2014-Jul-14 23:28N 01°16' E 103°53'0 0.0
2014-Jul-14 22:31N 01°16' E 103°53'0 0.1
2014-Jul-14 21:31N 01°16' E 103°54'0 0.1
2014-Jul-14 20:31N 01°16' E 103°54'0 0.1
2014-Jul-14 19:31N 01°16' E 103°54'0 0.0
2014-Jul-14 18:31N 01°16' E 103°54'0 0.0
2014-Jul-14 17:22N 01°16' E 103°54'0 0.1
2014-Jul-14 16:31N 01°16' E 103°53'0 0.1
2014-Jul-14 15:31N 01°16' E 103°53'0 0.0
2014-Jul-14 14:31N 01°16' E 103°53'0 0.1
2014-Jul-14 13:31N 01°16' E 103°53'0 0.0
2014-Jul-14 12:28N 01°16' E 103°53'0 0.1
2014-Jul-14 11:28N 01°16' E 103°53'0 0.0
2014-Jul-14 10:31N 01°16' E 103°53'0 0.1
2014-Jul-14 09:31N 01°16' E 103°54'0 0.0
2014-Jul-14 08:31N 01°16' E 103°54'0 0.0
2014-Jul-14 07:31N 01°16' E 103°54'0 0.0
2014-Jul-14 06:31N 01°16' E 103°54'0 0.1
2014-Jul-14 05:31N 01°16' E 103°53'0 0.0
2014-Jul-14 04:31N 01°16' E 103°53'  
Track history (hours):
 
Tides and Currents Weather Stations Pressure Air Temp Water Temp Dewpoint Dewpoint Depression Visibility Wind Speed Wind Dir Waves Ship Positions

YM Initiative

Last reported at 2014-Jul-23 08:04 UTC. Time now 2014-Jul-26 13:15 UTC.
Position N 01°14' E 104°03'.

Length 173 m; draft 7.7 m.

Type: Cargo ship. MMSI: 635961368.

Date/timePositionNaut miles runAvg speedWind from/ knotsBaromVisibWave heightAir tempDewpointWater temp
2014-Jul-23 08:04N 01°14' E 104°03'916.6
2014-Jul-23 07:33N 01°12' E 103°55'8 8.2
2014-Jul-23 06:33N 01°14' E 103°47'2 1.9
2014-Jul-23 05:22N 01°17' E 103°47'0 0.1
2014-Jul-23 04:28N 01°17' E 103°47'0 0.1
2014-Jul-23 03:31N 01°17' E 103°47'0 0.1
2014-Jul-23 02:28N 01°17' E 103°47'0 0.0
2014-Jul-23 01:31N 01°17' E 103°47'0 0.0
2014-Jul-23 00:31N 01°17' E 103°47'0 0.1
2014-Jul-22 23:31N 01°17' E 103°47'0 0.0
2014-Jul-22 22:28N 01°17' E 103°47'0 0.1
2014-Jul-22 21:31N 01°17' E 103°47'0 0.1
2014-Jul-22 20:31N 01°17' E 103°47'0 0.0
2014-Jul-22 19:28N 01°17' E 103°47'0 0.0
2014-Jul-22 18:31N 01°17' E 103°47'0 0.0
2014-Jul-22 17:28N 01°17' E 103°47'2 1.9
2014-Jul-22 16:33N 01°15' E 103°47'0 0.5
2014-Jul-22 15:33N 01°14' E 103°47'3 3.1
2014-Jul-22 14:31N 01°13' E 103°50'7 7.2
2014-Jul-22 13:33N 01°15' E 103°56'  
2014-Jul-17 12:24N 01°14' E 103°58'18 0.4
2014-Jul-15 17:09N 01°13' E 103°41'711.8
2014-Jul-15 16:33N 01°16' E 103°47'0 0.2
2014-Jul-15 15:33N 01°16' E 103°47'0 0.0
2014-Jul-15 14:33N 01°16' E 103°47'0 0.0
2014-Jul-15 13:33N 01°16' E 103°47'0 0.0
2014-Jul-15 12:33N 01°16' E 103°47'0 0.0
2014-Jul-15 11:33N 01°16' E 103°47'0 0.0
2014-Jul-15 10:33N 01°16' E 103°47'0 0.0
2014-Jul-15 09:33N 01°16' E 103°47'0 0.0
2014-Jul-15 08:33N 01°16' E 103°47'0 0.0
2014-Jul-15 07:33N 01°16' E 103°47'0 0.0
2014-Jul-15 06:33N 01°16' E 103°47'0 0.0
2014-Jul-15 05:33N 01°16' E 103°47'0 0.0
2014-Jul-15 04:33N 01°16' E 103°47'0 0.0
2014-Jul-15 03:33N 01°16' E 103°47'3 3.2
2014-Jul-15 02:33N 01°13' E 103°48'6 6.5
2014-Jul-15 01:33N 01°16' E 103°54'0 0.4
2014-Jul-15 00:31N 01°16' E 103°53'0 0.0
2014-Jul-14 23:28N 01°16' E 103°53'0 0.0
2014-Jul-14 22:31N 01°16' E 103°53'0 0.1
2014-Jul-14 21:31N 01°16' E 103°54'0 0.1
2014-Jul-14 20:31N 01°16' E 103°54'0 0.1
2014-Jul-14 19:31N 01°16' E 103°54'0 0.0
2014-Jul-14 18:31N 01°16' E 103°54'0 0.0
2014-Jul-14 17:22N 01°16' E 103°54'0 0.1
2014-Jul-14 16:31N 01°16' E 103°53'0 0.1
2014-Jul-14 15:31N 01°16' E 103°53'0 0.0
2014-Jul-14 14:31N 01°16' E 103°53'0 0.1
2014-Jul-14 13:31N 01°16' E 103°53'0 0.0
2014-Jul-14 12:28N 01°16' E 103°53'0 0.1
2014-Jul-14 11:28N 01°16' E 103°53'0 0.0
2014-Jul-14 10:31N 01°16' E 103°53'0 0.1
2014-Jul-14 09:31N 01°16' E 103°54'0 0.0
2014-Jul-14 08:31N 01°16' E 103°54'0 0.0
2014-Jul-14 07:31N 01°16' E 103°54'0 0.0
2014-Jul-14 06:31N 01°16' E 103°54'0 0.1
2014-Jul-14 05:31N 01°16' E 103°53'0 0.0
2014-Jul-14 04:31N 01°16' E 103°53'  

Dump ship's entire track history